sensor_id;sensor_type;location;lat;lon;timestamp;P1;durP1;ratioP1;P2;durP2;ratioP2
55210;SDS011;41082;52.822;6.666;2023-07-13T00:00:20;6.60;;;1.02;;
55210;SDS011;41082;52.822;6.666;2023-07-13T00:02:47;7.10;;;0.88;;
55210;SDS011;41082;52.822;6.666;2023-07-13T00:05:12;6.78;;;0.70;;
55210;SDS011;41082;52.822;6.666;2023-07-13T00:07:38;4.55;;;0.73;;
55210;SDS011;41082;52.822;6.666;2023-07-13T00:10:04;10.88;;;1.10;;
55210;SDS011;41082;52.822;6.666;2023-07-13T00:12:34;7.80;;;1.10;;
55210;SDS011;41082;52.822;6.666;2023-07-13T00:15:03;7.65;;;0.88;;
55210;SDS011;41082;52.822;6.666;2023-07-13T00:17:31;9.18;;;1.00;;
55210;SDS011;41082;52.822;6.666;2023-07-13T00:19:57;6.43;;;0.95;;
55210;SDS011;41082;52.822;6.666;2023-07-13T00:22:23;5.63;;;0.77;;
55210;SDS011;41082;52.822;6.666;2023-07-13T00:24:53;7.78;;;1.00;;
55210;SDS011;41082;52.822;6.666;2023-07-13T00:27:21;7.75;;;0.88;;
55210;SDS011;41082;52.822;6.666;2023-07-13T00:29:47;6.10;;;0.88;;
55210;SDS011;41082;52.822;6.666;2023-07-13T00:32:13;5.55;;;0.93;;
55210;SDS011;41082;52.822;6.666;2023-07-13T00:34:38;6.70;;;1.00;;
55210;SDS011;41082;52.822;6.666;2023-07-13T00:37:05;7.63;;;1.60;;
55210;SDS011;41082;52.822;6.666;2023-07-13T00:39:35;7.13;;;0.85;;
55210;SDS011;41082;52.822;6.666;2023-07-13T00:42:01;6.63;;;1.27;;
55210;SDS011;41082;52.822;6.666;2023-07-13T00:44:27;5.57;;;1.10;;
55210;SDS011;41082;52.822;6.666;2023-07-13T00:46:53;8.55;;;0.88;;
55210;SDS011;41082;52.822;6.666;2023-07-13T00:49:23;9.43;;;1.27;;
55210;SDS011;41082;52.822;6.666;2023-07-13T00:51:52;11.40;;;1.17;;
55210;SDS011;41082;52.822;6.666;2023-07-13T00:54:29;10.98;;;1.55;;
55210;SDS011;41082;52.822;6.666;2023-07-13T00:57:00;7.63;;;1.02;;
55210;SDS011;41082;52.822;6.666;2023-07-13T00:59:28;10.77;;;1.20;;
55210;SDS011;41082;52.822;6.666;2023-07-13T01:01:55;6.93;;;0.80;;
55210;SDS011;41082;52.822;6.666;2023-07-13T01:04:23;7.07;;;0.82;;
55210;SDS011;41082;52.822;6.666;2023-07-13T01:06:50;6.68;;;0.98;;
55210;SDS011;41082;52.822;6.666;2023-07-13T01:09:16;8.15;;;1.35;;
55210;SDS011;41082;52.822;6.666;2023-07-13T01:11:42;4.63;;;1.05;;
55210;SDS011;41082;52.822;6.666;2023-07-13T01:14:09;6.20;;;1.20;;
55210;SDS011;41082;52.822;6.666;2023-07-13T01:16:36;8.65;;;1.27;;
55210;SDS011;41082;52.822;6.666;2023-07-13T01:19:09;9.80;;;1.20;;
55210;SDS011;41082;52.822;6.666;2023-07-13T01:22:01;5.72;;;0.90;;
55210;SDS011;41082;52.822;6.666;2023-07-13T01:24:27;7.55;;;1.10;;
55210;SDS011;41082;52.822;6.666;2023-07-13T01:26:54;6.63;;;2.05;;
55210;SDS011;41082;52.822;6.666;2023-07-13T01:29:20;6.22;;;1.33;;
55210;SDS011;41082;52.822;6.666;2023-07-13T01:31:46;5.97;;;1.08;;
55210;SDS011;41082;52.822;6.666;2023-07-13T01:34:11;11.85;;;1.27;;
55210;SDS011;41082;52.822;6.666;2023-07-13T01:36:37;8.23;;;0.75;;
55210;SDS011;41082;52.822;6.666;2023-07-13T01:39:03;9.02;;;1.50;;
55210;SDS011;41082;52.822;6.666;2023-07-13T01:41:29;11.13;;;1.17;;
55210;SDS011;41082;52.822;6.666;2023-07-13T01:43:55;8.50;;;1.17;;
55210;SDS011;41082;52.822;6.666;2023-07-13T01:46:20;6.85;;;1.30;;
55210;SDS011;41082;52.822;6.666;2023-07-13T01:48:46;10.88;;;1.30;;
55210;SDS011;41082;52.822;6.666;2023-07-13T01:51:11;7.35;;;1.40;;
55210;SDS011;41082;52.822;6.666;2023-07-13T01:53:38;6.78;;;0.90;;
55210;SDS011;41082;52.822;6.666;2023-07-13T01:56:04;6.50;;;1.25;;
55210;SDS011;41082;52.822;6.666;2023-07-13T01:58:29;7.15;;;0.98;;
55210;SDS011;41082;52.822;6.666;2023-07-13T02:00:55;5.25;;;1.20;;
55210;SDS011;41082;52.822;6.666;2023-07-13T02:03:20;11.07;;;1.77;;
55210;SDS011;41082;52.822;6.666;2023-07-13T02:05:46;12.63;;;2.38;;
55210;SDS011;41082;52.822;6.666;2023-07-13T02:08:11;5.38;;;1.15;;
55210;SDS011;41082;52.822;6.666;2023-07-13T02:10:37;9.77;;;1.73;;
55210;SDS011;41082;52.822;6.666;2023-07-13T02:13:05;10.50;;;1.50;;
55210;SDS011;41082;52.822;6.666;2023-07-13T02:15:31;5.10;;;0.90;;
55210;SDS011;41082;52.822;6.666;2023-07-13T02:17:57;8.10;;;1.00;;
55210;SDS011;41082;52.822;6.666;2023-07-13T02:20:23;9.07;;;1.58;;
55210;SDS011;41082;52.822;6.666;2023-07-13T02:22:49;7.70;;;1.08;;
55210;SDS011;41082;52.822;6.666;2023-07-13T02:25:15;6.78;;;1.05;;
55210;SDS011;41082;52.822;6.666;2023-07-13T02:27:41;7.40;;;1.35;;
55210;SDS011;41082;52.822;6.666;2023-07-13T02:30:06;8.82;;;1.30;;
55210;SDS011;41082;52.822;6.666;2023-07-13T02:32:33;7.47;;;1.52;;
55210;SDS011;41082;52.822;6.666;2023-07-13T02:35:00;8.85;;;1.58;;
55210;SDS011;41082;52.822;6.666;2023-07-13T02:37:26;9.35;;;1.50;;
55210;SDS011;41082;52.822;6.666;2023-07-13T02:39:52;7.35;;;1.60;;
55210;SDS011;41082;52.822;6.666;2023-07-13T02:42:17;7.93;;;1.40;;
55210;SDS011;41082;52.822;6.666;2023-07-13T02:44:43;9.15;;;1.05;;
55210;SDS011;41082;52.822;6.666;2023-07-13T02:47:09;7.63;;;1.45;;
55210;SDS011;41082;52.822;6.666;2023-07-13T02:49:34;10.00;;;1.40;;
55210;SDS011;41082;52.822;6.666;2023-07-13T02:52:01;11.77;;;2.13;;
55210;SDS011;41082;52.822;6.666;2023-07-13T02:54:26;8.30;;;1.40;;
55210;SDS011;41082;52.822;6.666;2023-07-13T02:56:52;5.18;;;1.20;;
55210;SDS011;41082;52.822;6.666;2023-07-13T02:59:17;10.88;;;1.83;;
55210;SDS011;41082;52.822;6.666;2023-07-13T03:01:43;7.80;;;1.13;;
55210;SDS011;41082;52.822;6.666;2023-07-13T03:04:08;9.25;;;1.52;;
55210;SDS011;41082;52.822;6.666;2023-07-13T03:06:34;7.38;;;1.50;;
55210;SDS011;41082;52.822;6.666;2023-07-13T03:09:00;6.60;;;1.52;;
55210;SDS011;41082;52.822;6.666;2023-07-13T03:11:26;6.50;;;1.23;;
55210;SDS011;41082;52.822;6.666;2023-07-13T03:13:52;9.23;;;1.58;;
55210;SDS011;41082;52.822;6.666;2023-07-13T03:16:17;9.38;;;1.48;;
55210;SDS011;41082;52.822;6.666;2023-07-13T03:18:43;8.68;;;1.23;;
55210;SDS011;41082;52.822;6.666;2023-07-13T03:21:09;10.45;;;1.65;;
55210;SDS011;41082;52.822;6.666;2023-07-13T03:23:35;7.25;;;1.17;;
55210;SDS011;41082;52.822;6.666;2023-07-13T03:26:22;7.25;;;1.40;;
55210;SDS011;41082;52.822;6.666;2023-07-13T03:28:47;9.82;;;1.60;;
55210;SDS011;41082;52.822;6.666;2023-07-13T03:31:14;8.75;;;1.73;;
55210;SDS011;41082;52.822;6.666;2023-07-13T03:36:11;9.35;;;1.55;;
55210;SDS011;41082;52.822;6.666;2023-07-13T03:38:52;8.95;;;1.33;;
55210;SDS011;41082;52.822;6.666;2023-07-13T03:41:20;7.80;;;1.70;;
55210;SDS011;41082;52.822;6.666;2023-07-13T03:43:47;14.25;;;2.22;;
55210;SDS011;41082;52.822;6.666;2023-07-13T03:46:13;8.27;;;1.48;;
55210;SDS011;41082;52.822;6.666;2023-07-13T03:48:40;10.55;;;1.65;;
55210;SDS011;41082;52.822;6.666;2023-07-13T03:51:08;8.82;;;1.45;;
55210;SDS011;41082;52.822;6.666;2023-07-13T03:53:38;8.68;;;1.80;;
55210;SDS011;41082;52.822;6.666;2023-07-13T03:56:05;8.10;;;1.90;;
55210;SDS011;41082;52.822;6.666;2023-07-13T03:58:35;9.00;;;1.60;;
55210;SDS011;41082;52.822;6.666;2023-07-13T04:01:04;18.23;;;2.00;;
55210;SDS011;41082;52.822;6.666;2023-07-13T04:03:31;12.95;;;1.65;;
55210;SDS011;41082;52.822;6.666;2023-07-13T04:06:07;9.85;;;1.80;;
55210;SDS011;41082;52.822;6.666;2023-07-13T04:08:40;11.55;;;1.80;;
55210;SDS011;41082;52.822;6.666;2023-07-13T04:11:06;13.88;;;2.55;;
55210;SDS011;41082;52.822;6.666;2023-07-13T04:13:32;11.77;;;1.70;;
55210;SDS011;41082;52.822;6.666;2023-07-13T04:15:57;7.63;;;1.63;;
55210;SDS011;41082;52.822;6.666;2023-07-13T04:18:23;8.63;;;2.05;;
55210;SDS011;41082;52.822;6.666;2023-07-13T04:20:49;7.32;;;1.52;;
55210;SDS011;41082;52.822;6.666;2023-07-13T04:23:16;11.50;;;2.17;;
55210;SDS011;41082;52.822;6.666;2023-07-13T04:25:45;7.78;;;2.17;;
55210;SDS011;41082;52.822;6.666;2023-07-13T04:28:14;8.73;;;2.25;;
55210;SDS011;41082;52.822;6.666;2023-07-13T04:30:43;9.07;;;1.98;;
55210;SDS011;41082;52.822;6.666;2023-07-13T04:33:09;10.75;;;1.90;;
55210;SDS011;41082;52.822;6.666;2023-07-13T04:35:35;6.82;;;1.75;;
55210;SDS011;41082;52.822;6.666;2023-07-13T04:38:01;5.53;;;1.90;;
55210;SDS011;41082;52.822;6.666;2023-07-13T04:40:27;6.90;;;1.48;;
55210;SDS011;41082;52.822;6.666;2023-07-13T04:42:54;7.30;;;1.95;;
55210;SDS011;41082;52.822;6.666;2023-07-13T04:45:19;8.32;;;2.17;;
55210;SDS011;41082;52.822;6.666;2023-07-13T04:47:45;11.35;;;2.60;;
55210;SDS011;41082;52.822;6.666;2023-07-13T04:50:12;11.68;;;2.50;;
55210;SDS011;41082;52.822;6.666;2023-07-13T04:52:43;10.30;;;2.15;;
55210;SDS011;41082;52.822;6.666;2023-07-13T04:55:09;8.77;;;2.72;;
55210;SDS011;41082;52.822;6.666;2023-07-13T04:57:35;7.90;;;2.25;;
55210;SDS011;41082;52.822;6.666;2023-07-13T05:00:01;8.27;;;2.35;;
55210;SDS011;41082;52.822;6.666;2023-07-13T05:02:31;8.17;;;2.37;;
55210;SDS011;41082;52.822;6.666;2023-07-13T05:04:58;12.20;;;2.22;;
55210;SDS011;41082;52.822;6.666;2023-07-13T05:07:24;10.52;;;1.85;;
55210;SDS011;41082;52.822;6.666;2023-07-13T05:09:50;7.35;;;2.00;;
55210;SDS011;41082;52.822;6.666;2023-07-13T05:12:17;7.97;;;2.00;;
55210;SDS011;41082;52.822;6.666;2023-07-13T05:14:43;11.77;;;2.25;;
55210;SDS011;41082;52.822;6.666;2023-07-13T05:17:09;7.85;;;2.17;;
55210;SDS011;41082;52.822;6.666;2023-07-13T05:19:35;11.60;;;2.75;;
55210;SDS011;41082;52.822;6.666;2023-07-13T05:22:01;11.70;;;2.17;;
55210;SDS011;41082;52.822;6.666;2023-07-13T05:24:27;11.10;;;2.55;;
55210;SDS011;41082;52.822;6.666;2023-07-13T05:26:53;12.05;;;2.42;;
55210;SDS011;41082;52.822;6.666;2023-07-13T05:29:19;6.10;;;2.28;;
55210;SDS011;41082;52.822;6.666;2023-07-13T05:31:46;11.98;;;2.25;;
55210;SDS011;41082;52.822;6.666;2023-07-13T05:34:11;11.20;;;2.35;;
55210;SDS011;41082;52.822;6.666;2023-07-13T05:36:37;10.65;;;2.20;;
55210;SDS011;41082;52.822;6.666;2023-07-13T05:39:03;8.77;;;2.15;;
55210;SDS011;41082;52.822;6.666;2023-07-13T05:41:29;7.10;;;1.90;;
55210;SDS011;41082;52.822;6.666;2023-07-13T05:43:54;9.93;;;2.05;;
55210;SDS011;41082;52.822;6.666;2023-07-13T05:46:20;6.32;;;1.95;;
55210;SDS011;41082;52.822;6.666;2023-07-13T05:48:46;10.38;;;2.17;;
55210;SDS011;41082;52.822;6.666;2023-07-13T05:51:12;9.13;;;2.00;;
55210;SDS011;41082;52.822;6.666;2023-07-13T05:53:38;7.18;;;2.13;;
55210;SDS011;41082;52.822;6.666;2023-07-13T05:56:03;7.93;;;2.47;;
55210;SDS011;41082;52.822;6.666;2023-07-13T05:58:29;8.90;;;2.72;;
55210;SDS011;41082;52.822;6.666;2023-07-13T06:00:59;9.20;;;2.05;;
55210;SDS011;41082;52.822;6.666;2023-07-13T06:03:26;10.27;;;1.90;;
55210;SDS011;41082;52.822;6.666;2023-07-13T06:05:52;6.38;;;2.08;;
55210;SDS011;41082;52.822;6.666;2023-07-13T06:08:17;13.63;;;2.60;;
55210;SDS011;41082;52.822;6.666;2023-07-13T06:10:43;10.57;;;2.47;;
55210;SDS011;41082;52.822;6.666;2023-07-13T06:13:08;8.77;;;2.15;;
55210;SDS011;41082;52.822;6.666;2023-07-13T06:15:34;9.45;;;2.08;;
55210;SDS011;41082;52.822;6.666;2023-07-13T06:18:00;8.52;;;1.60;;
55210;SDS011;41082;52.822;6.666;2023-07-13T06:20:25;9.75;;;2.17;;
55210;SDS011;41082;52.822;6.666;2023-07-13T06:22:51;6.38;;;2.03;;
55210;SDS011;41082;52.822;6.666;2023-07-13T06:25:16;9.77;;;2.15;;
55210;SDS011;41082;52.822;6.666;2023-07-13T06:27:42;8.75;;;1.65;;
55210;SDS011;41082;52.822;6.666;2023-07-13T06:30:08;8.57;;;1.83;;
55210;SDS011;41082;52.822;6.666;2023-07-13T06:32:35;9.20;;;2.10;;
55210;SDS011;41082;52.822;6.666;2023-07-13T06:35:00;8.40;;;2.00;;
55210;SDS011;41082;52.822;6.666;2023-07-13T06:37:26;13.05;;;1.98;;
55210;SDS011;41082;52.822;6.666;2023-07-13T06:39:52;8.20;;;1.83;;
55210;SDS011;41082;52.822;6.666;2023-07-13T06:42:17;10.18;;;2.05;;
55210;SDS011;41082;52.822;6.666;2023-07-13T06:44:43;13.45;;;2.13;;
55210;SDS011;41082;52.822;6.666;2023-07-13T06:47:09;10.32;;;1.92;;
55210;SDS011;41082;52.822;6.666;2023-07-13T06:49:35;9.25;;;1.83;;
55210;SDS011;41082;52.822;6.666;2023-07-13T06:52:00;7.90;;;1.55;;
55210;SDS011;41082;52.822;6.666;2023-07-13T06:54:26;8.13;;;2.00;;
55210;SDS011;41082;52.822;6.666;2023-07-13T06:56:51;7.90;;;2.20;;
55210;SDS011;41082;52.822;6.666;2023-07-13T06:59:17;11.15;;;1.92;;
55210;SDS011;41082;52.822;6.666;2023-07-13T07:01:43;5.30;;;1.75;;
55210;SDS011;41082;52.822;6.666;2023-07-13T07:04:09;10.10;;;1.85;;
55210;SDS011;41082;52.822;6.666;2023-07-13T07:06:35;8.13;;;2.85;;
55210;SDS011;41082;52.822;6.666;2023-07-13T07:09:00;8.82;;;1.63;;
55210;SDS011;41082;52.822;6.666;2023-07-13T07:11:26;8.15;;;1.92;;
55210;SDS011;41082;52.822;6.666;2023-07-13T07:13:52;6.18;;;1.00;;
55210;SDS011;41082;52.822;6.666;2023-07-13T07:16:18;5.88;;;1.70;;
55210;SDS011;41082;52.822;6.666;2023-07-13T07:18:45;10.23;;;2.28;;
55210;SDS011;41082;52.822;6.666;2023-07-13T07:21:11;6.47;;;1.27;;
55210;SDS011;41082;52.822;6.666;2023-07-13T07:23:37;7.72;;;1.73;;
55210;SDS011;41082;52.822;6.666;2023-07-13T07:26:03;8.95;;;1.33;;
55210;SDS011;41082;52.822;6.666;2023-07-13T07:28:29;6.50;;;1.20;;
55210;SDS011;41082;52.822;6.666;2023-07-13T07:30:57;12.45;;;2.55;;
55210;SDS011;41082;52.822;6.666;2023-07-13T07:33:23;11.48;;;2.28;;
55210;SDS011;41082;52.822;6.666;2023-07-13T07:35:49;9.32;;;1.90;;
55210;SDS011;41082;52.822;6.666;2023-07-13T07:38:16;9.00;;;2.15;;
55210;SDS011;41082;52.822;6.666;2023-07-13T07:40:42;12.27;;;2.22;;
55210;SDS011;41082;52.822;6.666;2023-07-13T07:43:08;11.30;;;1.77;;
55210;SDS011;41082;52.822;6.666;2023-07-13T07:45:34;6.95;;;1.50;;
55210;SDS011;41082;52.822;6.666;2023-07-13T07:48:02;8.38;;;1.73;;
55210;SDS011;41082;52.822;6.666;2023-07-13T07:50:29;7.57;;;1.65;;
55210;SDS011;41082;52.822;6.666;2023-07-13T07:52:55;9.20;;;1.38;;
55210;SDS011;41082;52.822;6.666;2023-07-13T07:55:24;8.00;;;1.50;;
55210;SDS011;41082;52.822;6.666;2023-07-13T07:57:52;5.28;;;1.48;;
55210;SDS011;41082;52.822;6.666;2023-07-13T08:00:18;7.28;;;1.73;;
55210;SDS011;41082;52.822;6.666;2023-07-13T08:02:45;10.18;;;1.55;;
55210;SDS011;41082;52.822;6.666;2023-07-13T08:05:10;8.02;;;1.80;;
55210;SDS011;41082;52.822;6.666;2023-07-13T08:07:36;11.38;;;1.98;;
55210;SDS011;41082;52.822;6.666;2023-07-13T08:10:03;11.70;;;2.20;;
55210;SDS011;41082;52.822;6.666;2023-07-13T08:12:29;9.13;;;1.88;;
55210;SDS011;41082;52.822;6.666;2023-07-13T08:14:55;8.60;;;1.92;;
55210;SDS011;41082;52.822;6.666;2023-07-13T08:17:23;7.25;;;2.40;;
55210;SDS011;41082;52.822;6.666;2023-07-13T08:19:49;7.72;;;1.77;;
55210;SDS011;41082;52.822;6.666;2023-07-13T08:22:15;11.10;;;2.38;;
55210;SDS011;41082;52.822;6.666;2023-07-13T08:24:40;8.15;;;1.50;;
55210;SDS011;41082;52.822;6.666;2023-07-13T08:27:07;9.27;;;1.73;;
55210;SDS011;41082;52.822;6.666;2023-07-13T08:29:33;6.07;;;2.05;;
55210;SDS011;41082;52.822;6.666;2023-07-13T08:31:59;12.05;;;2.05;;
55210;SDS011;41082;52.822;6.666;2023-07-13T08:34:25;10.98;;;2.47;;
55210;SDS011;41082;52.822;6.666;2023-07-13T08:36:50;8.02;;;2.42;;
55210;SDS011;41082;52.822;6.666;2023-07-13T08:39:16;11.95;;;3.40;;
55210;SDS011;41082;52.822;6.666;2023-07-13T08:41:42;10.32;;;3.30;;
55210;SDS011;41082;52.822;6.666;2023-07-13T08:44:17;12.85;;;3.45;;
55210;SDS011;41082;52.822;6.666;2023-07-13T08:46:52;14.07;;;3.10;;
55210;SDS011;41082;52.822;6.666;2023-07-13T08:49:21;8.65;;;2.85;;
55210;SDS011;41082;52.822;6.666;2023-07-13T08:55:09;7.70;;;2.50;;
55210;SDS011;41082;52.822;6.666;2023-07-13T08:57:39;10.27;;;2.60;;
55210;SDS011;41082;52.822;6.666;2023-07-13T09:00:10;6.43;;;1.83;;
55210;SDS011;41082;52.822;6.666;2023-07-13T09:02:48;6.22;;;2.53;;
55210;SDS011;41082;52.822;6.666;2023-07-13T09:05:25;7.82;;;2.70;;
55210;SDS011;41082;52.822;6.666;2023-07-13T09:08:05;7.88;;;2.40;;
55210;SDS011;41082;52.822;6.666;2023-07-13T09:10:41;7.30;;;2.00;;
55210;SDS011;41082;52.822;6.666;2023-07-13T09:15:51;6.88;;;2.35;;
55210;SDS011;41082;52.822;6.666;2023-07-13T09:18:35;8.80;;;3.20;;
55210;SDS011;41082;52.822;6.666;2023-07-13T09:21:07;8.73;;;2.92;;
55210;SDS011;41082;52.822;6.666;2023-07-13T09:23:36;10.35;;;2.78;;
55210;SDS011;41082;52.822;6.666;2023-07-13T09:26:22;4.07;;;1.80;;
55210;SDS011;41082;52.822;6.666;2023-07-13T09:29:32;4.40;;;1.17;;
55210;SDS011;41082;52.822;6.666;2023-07-13T09:31:42;2.80;;;0.85;;
55210;SDS011;41082;52.822;6.666;2023-07-13T09:34:14;4.20;;;0.60;;
55210;SDS011;41082;52.822;6.666;2023-07-13T09:36:39;1.83;;;0.50;;
55210;SDS011;41082;52.822;6.666;2023-07-13T09:44:36;2.22;;;0.40;;
55210;SDS011;41082;52.822;6.666;2023-07-13T09:47:03;1.73;;;0.50;;
55210;SDS011;41082;52.822;6.666;2023-07-13T09:49:44;1.95;;;0.50;;
55210;SDS011;41082;52.822;6.666;2023-07-13T09:52:11;1.73;;;0.68;;
55210;SDS011;41082;52.822;6.666;2023-07-13T09:54:39;3.13;;;0.70;;
55210;SDS011;41082;52.822;6.666;2023-07-13T09:57:13;1.95;;;0.50;;
55210;SDS011;41082;52.822;6.666;2023-07-13T09:59:48;2.58;;;0.65;;
55210;SDS011;41082;52.822;6.666;2023-07-13T10:02:23;1.88;;;0.60;;
55210;SDS011;41082;52.822;6.666;2023-07-13T10:05:05;3.47;;;0.98;;
55210;SDS011;41082;52.822;6.666;2023-07-13T10:07:43;1.30;;;0.63;;
55210;SDS011;41082;52.822;6.666;2023-07-13T10:10:13;2.83;;;0.88;;
55210;SDS011;41082;52.822;6.666;2023-07-13T10:12:41;1.60;;;0.68;;
55210;SDS011;41082;52.822;6.666;2023-07-13T10:15:07;0.80;;;0.50;;
55210;SDS011;41082;52.822;6.666;2023-07-13T10:17:40;4.13;;;0.75;;
55210;SDS011;41082;52.822;6.666;2023-07-13T10:20:06;1.77;;;0.68;;
55210;SDS011;41082;52.822;6.666;2023-07-13T10:25:25;3.63;;;0.80;;
55210;SDS011;41082;52.822;6.666;2023-07-13T10:28:01;3.33;;;1.10;;
55210;SDS011;41082;52.822;6.666;2023-07-13T10:30:39;3.15;;;1.17;;
55210;SDS011;41082;52.822;6.666;2023-07-13T10:33:10;2.70;;;1.33;;
55210;SDS011;41082;52.822;6.666;2023-07-13T10:35:37;4.15;;;1.30;;
55210;SDS011;41082;52.822;6.666;2023-07-13T10:38:06;5.22;;;1.75;;
55210;SDS011;41082;52.822;6.666;2023-07-13T10:40:40;4.25;;;1.30;;
55210;SDS011;41082;52.822;6.666;2023-07-13T10:43:13;5.50;;;1.90;;
55210;SDS011;41082;52.822;6.666;2023-07-13T10:45:49;3.53;;;1.70;;
55210;SDS011;41082;52.822;6.666;2023-07-13T10:48:16;4.82;;;1.90;;
55210;SDS011;41082;52.822;6.666;2023-07-13T10:50:43;6.15;;;1.77;;
55210;SDS011;41082;52.822;6.666;2023-07-13T10:58:41;5.87;;;2.70;;
55210;SDS011;41082;52.822;6.666;2023-07-13T11:01:15;4.85;;;2.15;;
55210;SDS011;41082;52.822;6.666;2023-07-13T11:03:50;5.90;;;2.00;;
55210;SDS011;41082;52.822;6.666;2023-07-13T11:21:33;5.53;;;1.85;;
55210;SDS011;41082;52.822;6.666;2023-07-13T11:24:14;4.55;;;1.40;;
55210;SDS011;41082;52.822;6.666;2023-07-13T11:31:43;3.28;;;1.10;;
55210;SDS011;41082;52.822;6.666;2023-07-13T11:34:25;3.97;;;1.02;;
55210;SDS011;41082;52.822;6.666;2023-07-13T11:36:55;5.28;;;1.30;;
55210;SDS011;41082;52.822;6.666;2023-07-13T11:39:35;4.00;;;1.30;;
55210;SDS011;41082;52.822;6.666;2023-07-13T11:42:04;4.07;;;0.93;;
55210;SDS011;41082;52.822;6.666;2023-07-13T11:44:34;2.70;;;0.82;;
55210;SDS011;41082;52.822;6.666;2023-07-13T11:47:00;4.90;;;0.98;;
55210;SDS011;41082;52.822;6.666;2023-07-13T11:49:43;1.73;;;0.73;;
55210;SDS011;41082;52.822;6.666;2023-07-13T11:52:13;2.50;;;0.70;;
55210;SDS011;41082;52.822;6.666;2023-07-13T11:54:50;3.53;;;1.00;;
55210;SDS011;41082;52.822;6.666;2023-07-13T12:00:00;3.67;;;0.90;;
55210;SDS011;41082;52.822;6.666;2023-07-13T12:05:04;4.43;;;1.83;;
55210;SDS011;41082;52.822;6.666;2023-07-13T12:07:31;4.90;;;1.55;;
55210;SDS011;41082;52.822;6.666;2023-07-13T12:10:03;4.95;;;1.90;;
55210;SDS011;41082;52.822;6.666;2023-07-13T12:12:46;4.13;;;1.52;;
55210;SDS011;41082;52.822;6.666;2023-07-13T12:15:18;6.45;;;2.80;;
55210;SDS011;41082;52.822;6.666;2023-07-13T12:17:47;4.93;;;2.10;;
55210;SDS011;41082;52.822;6.666;2023-07-13T12:20:27;6.45;;;1.80;;
55210;SDS011;41082;52.822;6.666;2023-07-13T12:23:00;3.78;;;2.10;;
55210;SDS011;41082;52.822;6.666;2023-07-13T12:25:27;4.35;;;2.10;;
55210;SDS011;41082;52.822;6.666;2023-07-13T12:27:54;6.40;;;1.92;;
55210;SDS011;41082;52.822;6.666;2023-07-13T12:30:23;7.00;;;1.85;;
55210;SDS011;41082;52.822;6.666;2023-07-13T12:35:26;4.82;;;1.75;;
55210;SDS011;41082;52.822;6.666;2023-07-13T12:37:56;4.28;;;1.80;;
55210;SDS011;41082;52.822;6.666;2023-07-13T12:40:26;6.78;;;2.33;;
55210;SDS011;41082;52.822;6.666;2023-07-13T12:42:57;2.60;;;1.02;;
55210;SDS011;41082;52.822;6.666;2023-07-13T12:45:25;4.85;;;1.33;;
55210;SDS011;41082;52.822;6.666;2023-07-13T12:48:03;4.05;;;1.25;;
55210;SDS011;41082;52.822;6.666;2023-07-13T12:50:34;4.70;;;0.68;;
55210;SDS011;41082;52.822;6.666;2023-07-13T12:53:05;4.57;;;0.60;;
55210;SDS011;41082;52.822;6.666;2023-07-13T12:55:41;3.00;;;0.60;;
55210;SDS011;41082;52.822;6.666;2023-07-13T12:58:10;3.38;;;0.45;;
55210;SDS011;41082;52.822;6.666;2023-07-13T13:00:48;1.92;;;0.52;;
55210;SDS011;41082;52.822;6.666;2023-07-13T13:03:20;1.85;;;0.40;;
55210;SDS011;41082;52.822;6.666;2023-07-13T13:06:03;1.33;;;0.65;;
55210;SDS011;41082;52.822;6.666;2023-07-13T13:08:58;2.83;;;0.40;;
55210;SDS011;41082;52.822;6.666;2023-07-13T13:11:25;3.50;;;0.50;;
55210;SDS011;41082;52.822;6.666;2023-07-13T13:13:52;3.13;;;0.50;;
55210;SDS011;41082;52.822;6.666;2023-07-13T13:18:56;2.42;;;0.50;;
55210;SDS011;41082;52.822;6.666;2023-07-13T13:21:25;3.45;;;0.38;;
55210;SDS011;41082;52.822;6.666;2023-07-13T13:23:51;5.05;;;0.40;;
55210;SDS011;41082;52.822;6.666;2023-07-13T13:26:18;2.10;;;0.30;;
55210;SDS011;41082;52.822;6.666;2023-07-13T13:28:46;3.65;;;0.32;;
55210;SDS011;41082;52.822;6.666;2023-07-13T13:31:13;3.28;;;0.70;;
55210;SDS011;41082;52.822;6.666;2023-07-13T13:33:40;2.70;;;0.30;;
55210;SDS011;41082;52.822;6.666;2023-07-13T13:36:18;4.07;;;0.30;;
55210;SDS011;41082;52.822;6.666;2023-07-13T13:38:47;2.80;;;0.40;;
55210;SDS011;41082;52.822;6.666;2023-07-13T13:41:13;2.60;;;0.43;;
55210;SDS011;41082;52.822;6.666;2023-07-13T13:43:41;2.63;;;0.40;;
55210;SDS011;41082;52.822;6.666;2023-07-13T13:46:17;1.30;;;0.30;;
55210;SDS011;41082;52.822;6.666;2023-07-13T13:48:45;2.28;;;0.40;;
55210;SDS011;41082;52.822;6.666;2023-07-13T13:51:18;2.78;;;0.40;;
55210;SDS011;41082;52.822;6.666;2023-07-13T13:53:45;2.63;;;0.30;;
55210;SDS011;41082;52.822;6.666;2023-07-13T13:56:12;2.88;;;0.30;;
55210;SDS011;41082;52.822;6.666;2023-07-13T13:58:43;3.33;;;0.30;;
55210;SDS011;41082;52.822;6.666;2023-07-13T14:01:19;1.40;;;0.20;;
55210;SDS011;41082;52.822;6.666;2023-07-13T14:03:47;1.23;;;0.30;;
55210;SDS011;41082;52.822;6.666;2023-07-13T14:06:18;1.40;;;0.30;;
55210;SDS011;41082;52.822;6.666;2023-07-13T14:08:44;4.10;;;0.47;;
55210;SDS011;41082;52.822;6.666;2023-07-13T14:11:11;1.88;;;0.20;;
55210;SDS011;41082;52.822;6.666;2023-07-13T14:16:15;2.65;;;0.30;;
55210;SDS011;41082;52.822;6.666;2023-07-13T14:18:43;2.40;;;0.40;;
55210;SDS011;41082;52.822;6.666;2023-07-13T14:21:13;2.58;;;0.40;;
55210;SDS011;41082;52.822;6.666;2023-07-13T14:23:40;2.50;;;0.40;;
55210;SDS011;41082;52.822;6.666;2023-07-13T14:26:17;2.20;;;0.30;;
55210;SDS011;41082;52.822;6.666;2023-07-13T14:28:45;3.97;;;0.40;;
55210;SDS011;41082;52.822;6.666;2023-07-13T14:31:14;2.50;;;0.28;;
55210;SDS011;41082;52.822;6.666;2023-07-13T14:33:41;3.38;;;0.30;;
55210;SDS011;41082;52.822;6.666;2023-07-13T14:38:55;2.67;;;0.30;;
55210;SDS011;41082;52.822;6.666;2023-07-13T14:41:22;1.25;;;0.20;;
55210;SDS011;41082;52.822;6.666;2023-07-13T14:43:49;1.90;;;0.38;;
55210;SDS011;41082;52.822;6.666;2023-07-13T14:46:26;2.45;;;0.30;;
55210;SDS011;41082;52.822;6.666;2023-07-13T14:49:02;4.20;;;0.40;;
55210;SDS011;41082;52.822;6.666;2023-07-13T14:51:30;3.97;;;0.40;;
55210;SDS011;41082;52.822;6.666;2023-07-13T14:53:57;3.25;;;0.40;;
55210;SDS011;41082;52.822;6.666;2023-07-13T14:56:26;4.47;;;0.60;;
55210;SDS011;41082;52.822;6.666;2023-07-13T14:58:51;1.88;;;0.40;;
55210;SDS011;41082;52.822;6.666;2023-07-13T15:01:18;2.60;;;0.40;;
55210;SDS011;41082;52.822;6.666;2023-07-13T15:03:45;3.67;;;0.50;;
55210;SDS011;41082;52.822;6.666;2023-07-13T15:06:13;4.57;;;0.40;;
55210;SDS011;41082;52.822;6.666;2023-07-13T15:08:39;2.35;;;0.47;;
55210;SDS011;41082;52.822;6.666;2023-07-13T15:11:08;3.53;;;0.65;;
55210;SDS011;41082;52.822;6.666;2023-07-13T15:13:37;3.08;;;0.57;;
55210;SDS011;41082;52.822;6.666;2023-07-13T15:16:04;4.00;;;0.50;;
55210;SDS011;41082;52.822;6.666;2023-07-13T15:18:39;4.65;;;0.60;;
55210;SDS011;41082;52.822;6.666;2023-07-13T15:21:08;1.92;;;0.63;;
55210;SDS011;41082;52.822;6.666;2023-07-13T15:23:35;3.17;;;0.60;;
55210;SDS011;41082;52.822;6.666;2023-07-13T15:26:01;3.33;;;0.47;;
55210;SDS011;41082;52.822;6.666;2023-07-13T15:28:28;2.72;;;0.55;;
55210;SDS011;41082;52.822;6.666;2023-07-13T15:30:54;2.88;;;0.43;;
55210;SDS011;41082;52.822;6.666;2023-07-13T15:35:50;4.35;;;0.68;;
55210;SDS011;41082;52.822;6.666;2023-07-13T15:38:19;4.22;;;0.60;;
55210;SDS011;41082;52.822;6.666;2023-07-13T15:40:47;2.95;;;0.50;;
55210;SDS011;41082;52.822;6.666;2023-07-13T15:43:13;3.72;;;0.50;;
55210;SDS011;41082;52.822;6.666;2023-07-13T15:45:40;4.65;;;0.70;;
55210;SDS011;41082;52.822;6.666;2023-07-13T15:48:21;2.55;;;0.40;;
55210;SDS011;41082;52.822;6.666;2023-07-13T15:50:49;2.87;;;0.57;;
55210;SDS011;41082;52.822;6.666;2023-07-13T15:53:28;1.30;;;0.32;;